This is the latest recevied weather packets stored in our database for station/object K7GFH-13. If no packets are shown the sender has not sent any weather packets the latest 10 day(s).
| Time | Temp. | Humidity | Pressure | Rain* | Wind** | Luminosity | Snow |
|---|---|---|---|---|---|---|---|
| 1777455339 | 5° C | 92% | 1025.9 hPa | 0 mm | - | 0 W/m² | - |
| 1777454434 | 5° C | 92% | 1025.7 hPa | 0 mm | - | 0 W/m² | - |
| 1777453531 | 5.56° C | 90% | 1025.9 hPa | 0 mm | - | 0 W/m² | - |
| 1777452628 | 6.67° C | 88% | 1025.7 hPa | 0 mm | - | 0 W/m² | - |
| 1777451727 | 6.67° C | 87% | 1026.1 hPa | 0 mm | - | 0 W/m² | - |
| 1777450821 | 7.22° C | 85% | 1026 hPa | 0 mm | - | 0 W/m² | - |
| 1777449921 | 7.78° C | 83% | 1026.1 hPa | 0 mm | - | 0 W/m² | - |
| 1777448116 | 7.78° C | 82% | 1026 hPa | 0 mm | - | 0 W/m² | - |
| 1777447216 | 8.33° C | 81% | 1025.8 hPa | 0 mm | - | 0 W/m² | - |
| 1777446314 | 8.33° C | 81% | 1025.9 hPa | 0 mm | - | 0 W/m² | - |
| 1777445409 | 8.33° C | 82% | 1025.7 hPa | 0 mm | - | 0 W/m² | - |
| 1777444509 | 8.89° C | 79% | 1025.7 hPa | 0 mm | - | 0 W/m² | - |
| 1777443604 | 8.89° C | 79% | 1025.5 hPa | 0 mm | - | 0 W/m² | - |
| 1777442700 | 8.89° C | 77% | 1025.5 hPa | 0 mm | - | 0 W/m² | - |
| 1777441798 | 8.89° C | 76% | 1025.5 hPa | 0 mm | - | 0 W/m² | - |
| 1777440897 | 8.89° C | 76% | 1025.4 hPa | 0 mm | - | 0 W/m² | - |
| 1777439996 | 8.89° C | 77% | 1025.2 hPa | 0 mm | - | 0 W/m² | - |
| 1777439095 | 9.44° C | 75% | 1025.3 hPa | 0 mm | - | 0 W/m² | - |
| 1777438191 | 9.44° C | 74% | 1025.2 hPa | 0 mm | - | 0 W/m² | - |
| 1777437286 | 10° C | 73% | 1025.1 hPa | 0 mm | - | 0 W/m² | - |
| 1777436381 | 10° C | 72% | 1025.2 hPa | 0 mm | - | 0 W/m² | - |
| 1777435476 | 10° C | 70% | 1024.9 hPa | 0 mm | - | 0 W/m² | - |
| 1777433669 | 10.56° C | 67% | 1024.5 hPa | 0 mm | - | 0 W/m² | - |
| 1777430058 | 12.22° C | 61% | 1024.2 hPa | 0 mm | - | 28 W/m² | - |
| 1777423746 | 14.44° C | 52% | 1024.4 hPa | 0 mm | - | 261 W/m² | - |
* Rain latest hour (hover to see other rain measurements)
** Current wind speed in m/s (hover to see current wind gust speed)